LHC weather

CLOSED Arlington Municipal Airport
Arlington, Tennessee, United States

Public forecast

Using degrees Fahrenheit for public forecast. Weather courtesy of forecast.io.

METAR (pilot weather report)

Closest report is Millington-Memphis Airport, 10.7 nm (19.7 km) WNW. Retrieved 2019/06/25 13:50 UTC (1 hour ago):

KNQA 251350Z 00000KT 10SM CLR 25/22 A3004

TAF (pilot weather forecast)

Closest forecast is Memphis International Airport, 20.8 nm (38.5 km) SW. Retrieved 2019/06/25 12:22 UTC (3 hours ago):

TAF KMEM 251120Z 2512/2618 23005KT P6SM SCT250 FM251400 22006KT P6SM SCT040 SCT250 FM260100 19005KT P6SM FEW030 SCT100 SCT250 FM261300 23006KT P6SM SCT050 BKN200